Météo Nord-Pas-de-Calais   La météo au plus près de chez vous

Station météorologique

Observations météo à Embrun (05046)

05046001 873 m Dernier relevé à 10:18
18.8°C
Humidité 93 % Vent 3.6 km/h

Journée consultée

Lundi 31 Août 2026

Synthèse de la journée

Périodes de référence en UTC

Température maximale

19.1°C

à 10:06

06h 06h

Température minimale

14.3°C

à 08:36

18h 18h

Rafale maximale

16 km/h

à 05:36

00h 00h

Précipitations

0.2 mm

Cumul quotidien

06h 06h

Ensoleillement

0h 21 mins

Durée quotidienne

00h 00h

Graphiques de la journée

Heure locale Réduire

Données détaillées

Relevés météo

Pas de 6 minutes Afficher les relevés infra-horaires
Relevés météo détaillés à Embrun pour le Lundi 31 Août 2026
Heure Température °C Point de rosée °C Humidité % Vent moyen (raf.), km/h Précipitations mm Température à 10 cm °C Température à 20 cm °C Température à 50 cm °C Température à 100 cm °C Ensoleillement min Rayonnement global W/m²
10:18 18.8 °C 14.5 °C 76 % 4 km/h (10 km/h) 0 mm0 mm 19.2 °C 20.1 °C 20 °C 19.5 °C 3 min 139.9 W/m²
10:12 19 °C 15.1 °C 78 % 5 km/h (10 km/h) 0 mm0 mm 19.2 °C 20.2 °C 20 °C 19.5 °C 2 min 110.2 W/m²
10:06 19.1 °C 15.6 °C 80 % 4 km/h (9 km/h) 0 mm0 mm 19.2 °C 20.1 °C 20 °C 19.5 °C 4 min 157.4 W/m²
10:00 17.7 °C 14.4 °C 81 % 4 km/h (8 km/h) 0 mm0 mm 19.2 °C 20.2 °C 20 °C 19.5 °C 4 min 144 W/m²
09:54 17.2 °C 14.8 °C 86 % 4 km/h (8 km/h) 0 mm0 mm 19.2 °C 20.2 °C 20 °C 19.5 °C 6 min 162.6 W/m²
09:48 16.3 °C 14.7 °C 90 % 4 km/h (8 km/h) 0 mm0 mm 19.2 °C 20.2 °C 20 °C 19.5 °C 2 min 103.7 W/m²
09:42 16 °C 14.5 °C 91 % 4 km/h (8 km/h) 0 mm0 mm 19.2 °C 20.2 °C 20 °C 19.5 °C 0 min 49.9 W/m²
09:36 15.7 °C 14.1 °C 90 % 4 km/h (7 km/h) 0 mm0 mm 19.3 °C 20.2 °C 20 °C 19.5 °C 0 min 51.7 W/m²
09:30 15.5 °C 14.5 °C 94 % 5 km/h (10 km/h) 0 mm0 mm 19.3 °C 20.2 °C 20 °C 19.5 °C 0 min 53.8 W/m²
09:24 15.4 °C 14.4 °C 94 % 5 km/h (10 km/h) 0 mm0 mm 19.3 °C 20.3 °C 20 °C 19.5 °C 0 min 53.6 W/m²
09:18 15.4 °C 14.3 °C 93 % 4 km/h (6 km/h) 0 mm0 mm 19.3 °C 20.3 °C 20 °C 19.5 °C 0 min 37 W/m²
09:12 15.1 °C 14 °C 93 % 5 km/h (8 km/h) 0 mm0 mm 19.3 °C 20.3 °C 20 °C 19.5 °C 0 min 29.7 W/m²
09:06 14.8 °C 13.3 °C 91 % 6 km/h (9 km/h) 0 mm0 mm 19.3 °C 20.3 °C 20 °C 19.5 °C 0 min 26.6 W/m²
09:00 14.8 °C 13.7 °C 93 % 4 km/h (9 km/h) 0 mm0.2 mm 19.3 °C 20.3 °C 20 °C 19.5 °C 0 min 21.4 W/m²
08:54 14.8 °C 13.5 °C 92 % 3 km/h (6 km/h) 0 mm0 mm 19.3 °C 20.3 °C 20 °C 19.5 °C 0 min 19.2 W/m²
08:48 14.5 °C 13 °C 91 % 4 km/h (6 km/h) 0 mm0 mm 19.4 °C 20.3 °C 20 °C 19.5 °C 0 min 10.2 W/m²
08:42 14.4 °C 13.1 °C 92 % 3 km/h (5 km/h) 0 mm0 mm 19.4 °C 20.3 °C 20 °C 19.5 °C 0 min 6.4 W/m²
08:36 14.3 °C 13 °C 92 % 4 km/h (8 km/h) 0.2 mm0 mm 19.4 °C 20.4 °C 20 °C 19.5 °C 0 min 6.3 W/m²
08:30 14.5 °C 13 °C 91 % 4 km/h (8 km/h) 0 mm0 mm 19.4 °C 20.4 °C 20 °C 19.5 °C 0 min 7.2 W/m²
08:24 15.1 °C 13.6 °C 91 % 5 km/h (9 km/h) 0 mm0 mm 19.4 °C 20.4 °C 20 °C 19.5 °C 0 min 5.3 W/m²
08:18 15 °C 13 °C 88 % 6 km/h (9 km/h) 0 mm0 mm 19.4 °C 20.4 °C 20 °C 19.5 °C 0 min 4.6 W/m²
08:12 14.8 °C 13 °C 89 % 4 km/h (7 km/h) 0 mm0 mm 19.5 °C 20.4 °C 20 °C 19.5 °C 0 min 5 W/m²
08:06 14.6 °C 12.8 °C 89 % 3 km/h (6 km/h) 0 mm0 mm 19.5 °C 20.4 °C 20 °C 19.5 °C 0 min 5.5 W/m²
08:00 14.6 °C 12.6 °C 88 % 4 km/h (7 km/h) 0 mm0 mm 19.5 °C 20.4 °C 20 °C 19.5 °C 0 min 2.3 W/m²
07:54 14.9 °C 12.6 °C 86 % 2 km/h (7 km/h) 0 mm0 mm 19.5 °C 20.5 °C 20 °C 19.5 °C 0 min 0 W/m²
07:48 15 °C 12.7 °C 86 % 3 km/h (5 km/h) 0 mm0 mm 19.6 °C 20.5 °C 20 °C 19.5 °C 0 min 2.6 W/m²
07:42 15.1 °C 12.6 °C 85 % 3 km/h (4 km/h) 0 mm0 mm 19.6 °C 20.5 °C 20 °C 19.5 °C 0 min 8.3 W/m²
07:36 15.1 °C 12.6 °C 85 % 3 km/h (5 km/h) 0 mm0 mm 19.6 °C 20.5 °C 20 °C 19.5 °C 0 min 8.8 W/m²
07:30 14.9 °C 12.4 °C 85 % 4 km/h (11 km/h) 0 mm0 mm 19.6 °C 20.5 °C 20 °C 19.5 °C 0 min 7.7 W/m²
07:24 15.2 °C 12.5 °C 84 % 8 km/h (11 km/h) 0 mm0 mm 19.6 °C 20.6 °C 20 °C 19.5 °C 0 min 3.9 W/m²
07:18 15.1 °C 12.4 °C 84 % 7 km/h (11 km/h) 0 mm0 mm 19.6 °C 20.6 °C 20 °C 19.5 °C 0 min 0 W/m²
07:12 14.9 °C 12.4 °C 85 % 6 km/h (10 km/h) 0 mm0 mm 19.7 °C 20.6 °C 20 °C 19.5 °C 0 min 0 W/m²
07:06 15.1 °C 12.4 °C 84 % 6 km/h (10 km/h) 0 mm0 mm 19.7 °C 20.6 °C 20 °C 19.5 °C 0 min 0 W/m²
07:00 15.1 °C 12.4 °C 84 % 4 km/h (7 km/h) 0 mm0 mm 19.7 °C 20.6 °C 20 °C 19.5 °C 0 min 0 W/m²
06:54 15 °C 12.3 °C 84 % 5 km/h (9 km/h) 0 mm0 mm 19.8 °C 20.6 °C 20 °C 19.5 °C 0 min 0 W/m²
06:48 15.1 °C 12.2 °C 83 % 6 km/h (9 km/h) 0 mm0 mm 19.8 °C 20.6 °C 20 °C 19.5 °C 0 min 0 W/m²
06:42 15.2 °C 12.3 °C 83 % 7 km/h (10 km/h) 0 mm0 mm 19.8 °C 20.6 °C 20 °C 19.5 °C 0 min 0 W/m²
06:36 15.2 °C 12.3 °C 83 % 7 km/h (10 km/h) 0 mm0 mm 19.8 °C 20.7 °C 20 °C 19.5 °C 0 min 0 W/m²
06:30 15.1 °C 12.4 °C 84 % 6 km/h (8 km/h) 0 mm0 mm 19.9 °C 20.7 °C 20 °C 19.5 °C 0 min 0 W/m²
06:24 15 °C 12.3 °C 84 % 5 km/h (7 km/h) 0 mm0 mm 19.9 °C 20.7 °C 20 °C 19.5 °C 0 min 0 W/m²
06:18 15 °C 12.3 °C 84 % 4 km/h (7 km/h) 0 mm0 mm 19.9 °C 20.7 °C 20 °C 19.5 °C 0 min 0 W/m²
06:12 14.9 °C 12.2 °C 84 % 3 km/h (6 km/h) 0 mm0 mm 19.9 °C 20.7 °C 20 °C 19.5 °C 0 min 0 W/m²
06:06 14.9 °C 12.2 °C 84 % 5 km/h (7 km/h) 0 mm0 mm 20 °C 20.7 °C 20 °C 19.5 °C 0 min 0 W/m²
06:00 14.7 °C 12.2 °C 85 % 5 km/h (9 km/h) 0 mm0 mm 20 °C 20.8 °C 20 °C 19.5 °C 0 min 0 W/m²
05:54 14.5 °C 12.2 °C 86 % 5 km/h (10 km/h) 0 mm0 mm 20 °C 20.8 °C 20 °C 19.5 °C 0 min 0 W/m²
05:48 14.6 °C 12.1 °C 85 % 9 km/h (15 km/h) 0 mm0 mm 20 °C 20.8 °C 20 °C 19.5 °C 0 min 0 W/m²
05:42 14.6 °C 12.1 °C 85 % 12 km/h (16 km/h) 0 mm0 mm 20.1 °C 20.8 °C 20 °C 19.5 °C 0 min 0 W/m²
05:36 14.6 °C 12.1 °C 85 % 11 km/h (16 km/h) 0 mm0 mm 20.1 °C 20.8 °C 20 °C 19.5 °C 0 min 0 W/m²
05:30 14.8 °C 12.1 °C 84 % 9 km/h (13 km/h) 0 mm0 mm 20.1 °C 20.8 °C 20 °C 19.5 °C 0 min 0 W/m²
05:24 15 °C 11.9 °C 82 % 11 km/h (16 km/h) 0 mm0 mm 20.2 °C 20.8 °C 20 °C 19.5 °C 0 min 0 W/m²
05:18 15 °C 12.1 °C 83 % 11 km/h (16 km/h) 0 mm0 mm 20.2 °C 20.9 °C 20 °C 19.5 °C 0 min 0 W/m²
05:12 15.2 °C 12.1 °C 82 % 10 km/h (13 km/h) 0 mm0 mm 20.2 °C 20.9 °C 20 °C 19.5 °C 0 min 0 W/m²
05:06 15.3 °C 12.2 °C 82 % 9 km/h (12 km/h) 0 mm0 mm 20.2 °C 20.9 °C 20 °C 19.5 °C 0 min 0 W/m²
05:00 15.1 °C 12 °C 82 % 6 km/h (10 km/h) 0 mm0 mm 20.3 °C 20.9 °C 20 °C 19.5 °C 0 min 0 W/m²
04:54 15 °C 12.1 °C 83 % 6 km/h (8 km/h) 0 mm0 mm 20.3 °C 20.9 °C 20 °C 19.5 °C 0 min 0 W/m²
04:48 14.9 °C 12 °C 83 % 5 km/h (8 km/h) 0 mm0 mm 20.3 °C 20.9 °C 20 °C 19.5 °C 0 min 0 W/m²
04:42 14.7 °C 12 °C 84 % 4 km/h (7 km/h) 0 mm0 mm 20.4 °C 20.9 °C 20 °C 19.5 °C 0 min 0 W/m²
04:36 15.1 °C 12 °C 82 % 3 km/h (6 km/h) 0 mm0 mm 20.4 °C 21 °C 20 °C 19.5 °C 0 min 0 W/m²
04:30 15.6 °C 12.2 °C 80 % 5 km/h (10 km/h) 0 mm0 mm 20.4 °C 21 °C 20 °C 19.5 °C 0 min 0 W/m²
04:24 15.8 °C 12.2 °C 79 % 7 km/h (12 km/h) 0 mm0 mm 20.4 °C 21 °C 20 °C 19.5 °C 0 min 0 W/m²
04:18 15.7 °C 12.3 °C 80 % 7 km/h (12 km/h) 0 mm0 mm 20.5 °C 21 °C 20 °C 19.5 °C 0 min 0 W/m²
04:12 15.5 °C 12.1 °C 80 % 5 km/h (9 km/h) 0 mm0 mm 20.5 °C 21 °C 20 °C 19.5 °C 0 min 0 W/m²
04:06 15.6 °C 12 °C 79 % 5 km/h (9 km/h) 0 mm0 mm 20.5 °C 21 °C 20 °C 19.5 °C 0 min 0 W/m²
04:00 15.8 °C 12.2 °C 79 % 8 km/h (13 km/h) 0 mm0 mm 20.5 °C 21.1 °C 20 °C 19.5 °C 0 min 0 W/m²
03:54 15.9 °C 12.3 °C 79 % 8 km/h (13 km/h) 0 mm0 mm 20.6 °C 21.1 °C 20 °C 19.5 °C 0 min 0 W/m²
03:48 16 °C 12.2 °C 78 % 8 km/h (13 km/h) 0 mm0 mm 20.6 °C 21.1 °C 20 °C 19.5 °C 0 min 0 W/m²
03:42 16.1 °C 12.5 °C 79 % 10 km/h (15 km/h) 0 mm0 mm 20.6 °C 21.1 °C 19.9 °C 19.5 °C 0 min 0 W/m²
03:36 16 °C 12.5 °C 80 % 11 km/h (15 km/h) 0 mm0 mm 20.7 °C 21.1 °C 19.9 °C 19.5 °C 0 min 0 W/m²
03:30 15.6 °C 12.3 °C 81 % 9 km/h (14 km/h) 0 mm0 mm 20.7 °C 21.1 °C 19.9 °C 19.5 °C 0 min 0 W/m²
03:24 15.6 °C 12.2 °C 80 % 6 km/h (13 km/h) 0 mm0 mm 20.7 °C 21.1 °C 19.9 °C 19.5 °C 0 min 0 W/m²
03:18 16.6 °C 12.3 °C 76 % 8 km/h (11 km/h) 0 mm0 mm 20.8 °C 21.1 °C 19.9 °C 19.5 °C 0 min 0 W/m²
03:12 16.7 °C 12.4 °C 76 % 8 km/h (11 km/h) 0 mm0 mm 20.8 °C 21.1 °C 19.9 °C 19.5 °C 0 min 0 W/m²
03:06 16.6 °C 12.5 °C 77 % 9 km/h (12 km/h) 0 mm0 mm 20.8 °C 21.2 °C 19.9 °C 19.5 °C 0 min 0 W/m²
03:00 16.4 °C 12.6 °C 78 % 8 km/h (12 km/h) 0 mm0 mm 20.8 °C 21.2 °C 19.9 °C 19.5 °C 0 min 0 W/m²
02:54 16.1 °C 12.5 °C 79 % 3 km/h (9 km/h) 0 mm0 mm 20.9 °C 21.2 °C 19.9 °C 19.5 °C 0 min 0 W/m²
02:48 16.4 °C 12.6 °C 78 % 3 km/h (5 km/h) 0 mm0 mm 20.9 °C 21.2 °C 19.9 °C 19.5 °C 0 min 0 W/m²
02:42 16.7 °C 12.4 °C 76 % 4 km/h (8 km/h) 0 mm0 mm 20.9 °C 21.2 °C 19.9 °C 19.5 °C 0 min 0 W/m²
02:36 17 °C 12.3 °C 74 % 4 km/h (8 km/h) 0 mm0 mm 20.9 °C 21.2 °C 19.9 °C 19.5 °C 0 min 0 W/m²
02:30 16.8 °C 12.5 °C 76 % 4 km/h (7 km/h) 0 mm0 mm 21 °C 21.2 °C 19.9 °C 19.5 °C 0 min 0 W/m²
02:24 17 °C 12.7 °C 76 % 5 km/h (8 km/h) 0 mm0 mm 21 °C 21.2 °C 19.9 °C 19.5 °C 0 min 0 W/m²
02:18 16.9 °C 12.6 °C 76 % 5 km/h (8 km/h) 0 mm0 mm 21.1 °C 21.2 °C 19.9 °C 19.5 °C 0 min 0 W/m²
02:12 17.1 °C 12.6 °C 75 % 4 km/h (7 km/h) 0 mm0 mm 21.1 °C 21.3 °C 19.9 °C 19.5 °C 0 min 0 W/m²
02:06 17.5 °C 12.8 °C 74 % 6 km/h (11 km/h) 0 mm0 mm 21.1 °C 21.3 °C 19.9 °C 19.5 °C 0 min 0 W/m²
02:00 17.3 °C 13 °C 76 % 7 km/h (11 km/h) 0 mm0 mm 21.1 °C 21.3 °C 19.9 °C 19.5 °C 0 min 0 W/m²
01:54 17 °C 12.9 °C 77 % 5 km/h (9 km/h) 0 mm0 mm 21.2 °C 21.3 °C 19.9 °C 19.5 °C 0 min 0 W/m²
01:48 16.9 °C 12.8 °C 77 % 3 km/h (5 km/h) 0 mm0 mm 21.2 °C 21.3 °C 19.9 °C 19.5 °C 0 min 0 W/m²
01:42 16.8 °C 12.9 °C 78 % 2 km/h (5 km/h) 0 mm0 mm 21.2 °C 21.3 °C 19.9 °C 19.5 °C 0 min 0 W/m²
01:36 17.4 °C 13.1 °C 76 % 0 km/h (4 km/h) 0 mm0 mm 21.3 °C 21.3 °C 19.9 °C 19.5 °C 0 min 0 W/m²
01:30 17.4 °C 12.9 °C 75 % 3 km/h (6 km/h) 0 mm0 mm 21.3 °C 21.3 °C 19.9 °C 19.5 °C 0 min 0 W/m²
01:24 17.5 °C 13 °C 75 % 3 km/h (8 km/h) 0 mm0 mm 21.3 °C 21.3 °C 19.9 °C 19.5 °C 0 min 0 W/m²
01:18 17.9 °C 13 °C 73 % 4 km/h (8 km/h) 0 mm0 mm 21.3 °C 21.3 °C 19.9 °C 19.5 °C 0 min 0 W/m²
01:12 18.1 °C 13.2 °C 73 % 5 km/h (8 km/h) 0 mm0 mm 21.4 °C 21.4 °C 19.9 °C 19.5 °C 0 min 0 W/m²
01:06 18.3 °C 13.4 °C 73 % 5 km/h (8 km/h) 0 mm0 mm 21.4 °C 21.4 °C 19.9 °C 19.5 °C 0 min 0 W/m²
01:00 18.1 °C 13.4 °C 74 % 5 km/h (8 km/h) 0 mm0 mm 21.4 °C 21.4 °C 19.9 °C 19.5 °C 0 min 0 W/m²
00:54 18.1 °C 13.4 °C 74 % 4 km/h (6 km/h) 0 mm0 mm 21.4 °C 21.4 °C 19.9 °C 19.5 °C 0 min 0 W/m²
00:48 18.3 °C 13.4 °C 73 % 4 km/h (6 km/h) 0 mm0 mm 21.5 °C 21.4 °C 19.9 °C 19.5 °C 0 min 0 W/m²
00:42 18.4 °C 13.5 °C 73 % 4 km/h (8 km/h) 0 mm0 mm 21.5 °C 21.4 °C 19.8 °C 19.5 °C 0 min 0 W/m²
00:36 18.6 °C 13.7 °C 73 % 4 km/h (8 km/h) 0 mm0 mm 21.5 °C 21.4 °C 19.8 °C 19.5 °C 0 min 0 W/m²
00:30 18.8 °C 13.9 °C 73 % 3 km/h (8 km/h) 0 mm0 mm 21.6 °C 21.4 °C 19.9 °C 19.5 °C 0 min 0 W/m²
00:24 19.1 °C 13.9 °C 72 % 3 km/h (7 km/h) 0 mm0 mm 21.6 °C 21.4 °C 19.8 °C 19.5 °C 0 min 0 W/m²
00:18 19.4 °C 14 °C 71 % 5 km/h (11 km/h) 0 mm0 mm 21.6 °C 21.4 °C 19.8 °C 19.5 °C 0 min 0 W/m²
00:12 19.5 °C 14.1 °C 71 % 7 km/h (11 km/h) 0 mm0 mm 21.6 °C 21.4 °C 19.8 °C 19.5 °C 0 min 0 W/m²
00:06 19.5 °C 14.1 °C 71 % 6 km/h (11 km/h) 0 mm0 mm 21.7 °C 21.4 °C 19.8 °C 19.5 °C 0 min 0 W/m²
00:00 19.4 °C 14.2 °C 72 % 5 km/h (10 km/h) 0 mm0 mm 21.7 °C 21.4 °C 19.8 °C 19.5 °C 0 min 0 W/m²

Données via Météo-France

Relevés météo à Embrun

Cette page rassemble les observations de la station de Embrun : température, humidité, vent, précipitations et pression atmosphérique. Les graphiques facilitent le suivi de la journée, tandis que le tableau donne accès aux mesures horaires et infra-horaires disponibles.

Pour replacer ces mesures dans leur contexte, consultez la climatologie de Embrun ainsi que ses normales et records. Retrouvez aussi la carte des observations météo en temps réel.